createdAt,value
2023-01-09T00:00:52.378Z,-7.86
2023-01-09T00:03:19.636Z,-7.95
2023-01-09T00:05:46.867Z,-7.93
2023-01-09T00:08:14.141Z,-7.96
2023-01-09T00:10:41.360Z,-8.00
2023-01-09T00:13:13.667Z,-7.95
2023-01-09T00:15:41.254Z,-7.88
2023-01-09T00:18:08.446Z,-7.91
2023-01-09T00:20:36.539Z,-7.92
2023-01-09T00:23:04.051Z,-7.87
2023-01-09T00:25:31.307Z,-7.86
2023-01-09T00:27:58.512Z,-7.80
2023-01-09T00:30:26.201Z,-7.76
2023-01-09T00:32:55.033Z,-7.82
2023-01-09T00:35:23.350Z,-7.86
2023-01-09T00:37:50.638Z,-7.86
2023-01-09T00:40:18.459Z,-7.85
2023-01-09T00:42:53.179Z,-7.90
2023-01-09T00:45:28.793Z,-7.95
2023-01-09T00:47:59.219Z,-7.95
2023-01-09T00:50:29.596Z,-7.95
2023-01-09T00:52:57.272Z,-7.94
2023-01-09T00:55:24.495Z,-7.94
2023-01-09T00:57:51.718Z,-7.88
2023-01-09T01:00:19.340Z,-7.84
2023-01-09T01:02:46.542Z,-7.85
2023-01-09T01:05:32.439Z,-7.98
2023-01-09T01:07:59.619Z,-8.05
2023-01-09T01:10:27.304Z,-8.00
2023-01-09T01:12:54.558Z,-7.98
2023-01-09T01:15:21.809Z,-7.95
2023-01-09T01:17:49.114Z,-8.00
2023-01-09T01:20:18.375Z,-8.05
2023-01-09T01:22:47.397Z,-8.02
2023-01-09T01:25:17.099Z,-7.97
2023-01-09T01:27:44.744Z,-7.97
2023-01-09T01:30:13.647Z,-7.97
2023-01-09T01:32:40.948Z,-7.98
2023-01-09T01:35:08.948Z,-8.00
2023-01-09T01:37:36.433Z,-8.07
2023-01-09T01:40:04.850Z,-8.12
2023-01-09T01:42:32.089Z,-8.09
2023-01-09T01:45:10.141Z,-8.08
2023-01-09T01:47:49.990Z,-8.13
2023-01-09T01:50:17.219Z,-8.22
2023-01-09T01:52:46.148Z,-8.25
2023-01-09T01:55:13.328Z,-8.27
2023-01-09T01:57:41.662Z,-8.26
2023-01-09T02:00:09.758Z,-8.28
2023-01-09T02:02:36.984Z,-8.28
2023-01-09T02:05:04.496Z,-8.31
2023-01-09T02:07:31.772Z,-8.32
2023-01-09T02:09:59.038Z,-8.28
2023-01-09T02:12:27.205Z,-8.29
2023-01-09T02:15:05.546Z,-8.24
2023-01-09T02:18:10.831Z,-8.20
2023-01-09T02:20:39.149Z,-8.10
2023-01-09T02:23:21.575Z,-8.09
2023-01-09T02:26:29.417Z,-8.06
2023-01-09T02:29:19.745Z,-8.11
2023-01-09T02:32:00.502Z,-8.04
2023-01-09T02:34:46.885Z,-8.01
2023-01-09T02:37:46.494Z,-7.95
2023-01-09T02:40:22.811Z,-7.90
2023-01-09T02:42:49.944Z,-7.90
2023-01-09T02:45:17.114Z,-7.91
2023-01-09T02:47:45.773Z,-7.93
2023-01-09T02:50:20.568Z,-7.89
2023-01-09T02:53:00.185Z,-7.87
2023-01-09T02:55:49.219Z,-7.80
2023-01-09T02:58:35.493Z,-7.77
2023-01-09T03:01:27.895Z,-7.76
2023-01-09T03:04:04.536Z,-7.74
2023-01-09T03:06:44.228Z,-7.76
2023-01-09T03:09:17.969Z,-7.73
2023-01-09T03:11:48.404Z,-7.75
2023-01-09T03:14:17.752Z,-7.85
2023-01-09T03:16:47.257Z,-7.86
2023-01-09T03:19:16.630Z,-7.86
2023-01-09T03:21:44.247Z,-7.99
2023-01-09T03:24:11.360Z,-7.91
2023-01-09T03:26:38.539Z,-7.92
2023-01-09T03:29:05.815Z,-8.01
2023-01-09T03:31:33.159Z,-7.99
2023-01-09T03:34:00.362Z,-8.04
2023-01-09T03:36:27.607Z,-8.00
2023-01-09T03:38:54.816Z,-8.02
2023-01-09T03:41:22.103Z,-8.03
2023-01-09T03:43:49.314Z,-7.97
2023-01-09T03:46:17.024Z,-7.96
2023-01-09T03:48:44.243Z,-8.05
2023-01-09T03:51:11.395Z,-8.09
2023-01-09T03:53:38.960Z,-8.09
2023-01-09T03:56:06.565Z,-8.13
2023-01-09T03:58:33.797Z,-8.17
2023-01-09T04:01:03.354Z,-8.18
2023-01-09T04:03:30.773Z,-8.24
2023-01-09T04:05:58.012Z,-8.21
2023-01-09T04:08:25.911Z,-8.24
2023-01-09T04:10:53.201Z,-8.20
2023-01-09T04:13:20.484Z,-8.23
2023-01-09T04:15:47.741Z,-8.26
2023-01-09T04:18:15.126Z,-8.28
2023-01-09T04:20:42.407Z,-8.22
2023-01-09T04:23:09.607Z,-8.20
2023-01-09T04:25:36.903Z,-8.27
2023-01-09T04:28:04.206Z,-8.25
2023-01-09T04:30:31.831Z,-8.23
2023-01-09T04:32:58.989Z,-8.21
2023-01-09T04:35:26.149Z,-8.19
2023-01-09T04:37:53.371Z,-8.22
2023-01-09T04:40:20.640Z,-8.25
2023-01-09T04:42:48.064Z,-8.22
2023-01-09T04:45:17.417Z,-8.24
2023-01-09T04:47:45.129Z,-8.25
2023-01-09T04:50:12.862Z,-8.26
2023-01-09T04:52:40.266Z,-8.33
2023-01-09T04:55:08.306Z,-8.35
2023-01-09T04:57:36.201Z,-8.36
2023-01-09T05:00:04.868Z,-8.40
2023-01-09T05:02:32.249Z,-8.43
2023-01-09T05:04:59.498Z,-8.41
2023-01-09T05:07:26.901Z,-8.40
2023-01-09T05:09:54.089Z,-8.41
2023-01-09T05:12:21.252Z,-8.41
2023-01-09T05:14:48.516Z,-8.44
2023-01-09T05:17:15.697Z,-8.47
2023-01-09T05:19:43.049Z,-8.44
2023-01-09T05:22:10.357Z,-8.45
2023-01-09T05:24:37.716Z,-8.52
2023-01-09T05:27:04.983Z,-8.52
2023-01-09T05:29:32.214Z,-8.49
2023-01-09T05:31:59.465Z,-8.45
2023-01-09T05:34:26.747Z,-8.43
2023-01-09T05:36:53.898Z,-8.40
2023-01-09T05:39:21.191Z,-8.39
2023-01-09T05:41:48.560Z,-8.35
2023-01-09T05:44:15.837Z,-8.35
2023-01-09T05:46:43.087Z,-8.44
2023-01-09T05:49:10.271Z,-8.28
2023-01-09T05:51:37.965Z,-8.13
2023-01-09T05:54:07.638Z,-8.10
2023-01-09T05:56:35.213Z,-8.02
2023-01-09T05:59:02.475Z,-7.97
2023-01-09T06:01:29.748Z,-7.98
2023-01-09T06:03:56.980Z,-8.09
2023-01-09T06:06:24.522Z,-7.94
2023-01-09T06:08:51.728Z,-8.04
2023-01-09T06:11:18.900Z,-7.87
2023-01-09T06:13:46.399Z,-7.83
2023-01-09T06:16:14.224Z,-8.04
2023-01-09T06:18:41.792Z,-7.86
2023-01-09T06:21:08.987Z,-7.76
2023-01-09T06:23:36.163Z,-7.75
2023-01-09T06:26:03.349Z,-7.57
2023-01-09T06:28:30.564Z,-7.44
2023-01-09T06:30:57.951Z,-7.41
2023-01-09T06:33:25.264Z,-7.31
2023-01-09T06:35:52.465Z,-7.17
2023-01-09T06:38:19.869Z,-7.20
2023-01-09T06:40:47.089Z,-7.08
2023-01-09T06:43:14.362Z,-6.71
2023-01-09T06:45:45.592Z,-6.08
2023-01-09T06:48:12.998Z,-5.21
2023-01-09T06:50:40.168Z,-4.62
2023-01-09T06:53:07.328Z,-4.03
2023-01-09T06:55:34.529Z,-3.54
2023-01-09T06:58:01.588Z,-3.24
2023-01-09T07:00:29.817Z,-2.94
2023-01-09T07:02:57.034Z,-2.41
2023-01-09T07:05:24.472Z,-1.96
2023-01-09T07:07:51.778Z,-2.04
2023-01-09T07:10:19.165Z,-1.88
2023-01-09T07:12:46.967Z,-1.31
2023-01-09T07:15:14.169Z,-0.85
2023-01-09T07:17:42.451Z,-0.63
2023-01-09T07:20:19.567Z,-0.48
2023-01-09T07:22:47.298Z,-0.14
2023-01-09T07:25:14.544Z,0.13
2023-01-09T07:27:42.591Z,-0.15
2023-01-09T07:30:10.826Z,-0.56
2023-01-09T07:32:45.288Z,-0.77
2023-01-09T07:35:12.855Z,-0.67
2023-01-09T07:37:40.078Z,-0.38
2023-01-09T07:40:08.618Z,0.19
2023-01-09T07:42:36.026Z,0.47
2023-01-09T07:45:03.941Z,0.52
2023-01-09T07:47:31.144Z,0.54
2023-01-09T07:49:58.367Z,0.81
2023-01-09T07:52:25.644Z,0.65
2023-01-09T07:54:52.805Z,0.53
2023-01-09T07:57:20.123Z,0.30
2023-01-09T07:59:47.284Z,0.26
2023-01-09T08:02:14.489Z,0.50
2023-01-09T08:04:41.684Z,0.15
2023-01-09T08:07:08.884Z,0.22
2023-01-09T08:09:36.363Z,0.65
2023-01-09T08:12:04.498Z,0.43
2023-01-09T08:14:31.820Z,0.70
2023-01-09T08:16:59.107Z,0.75
2023-01-09T08:19:26.344Z,1.59
2023-01-09T08:21:53.838Z,2.03
2023-01-09T08:24:21.023Z,1.92
2023-01-09T08:26:48.476Z,1.63
2023-01-09T08:29:15.679Z,1.33
2023-01-09T08:31:42.925Z,2.02
2023-01-09T08:34:10.744Z,2.18
2023-01-09T08:36:37.959Z,1.35
2023-01-09T08:39:05.197Z,1.80
2023-01-09T08:41:51.171Z,1.90
2023-01-09T08:44:37.411Z,2.70
2023-01-09T08:47:07.567Z,3.05
2023-01-09T08:49:35.923Z,2.45
2023-01-09T08:52:04.110Z,1.76
2023-01-09T08:54:31.509Z,1.69
2023-01-09T08:56:58.820Z,1.72
2023-01-09T08:59:25.984Z,2.48
2023-01-09T09:01:53.255Z,2.88
2023-01-09T09:04:20.579Z,3.24
2023-01-09T09:06:48.189Z,2.76
2023-01-09T09:09:15.408Z,2.53
2023-01-09T09:11:42.529Z,1.69
2023-01-09T09:14:28.588Z,2.39
2023-01-09T09:16:56.004Z,2.80
2023-01-09T09:19:23.247Z,2.85
2023-01-09T09:21:50.542Z,2.99
2023-01-09T09:24:17.829Z,3.16
2023-01-09T09:26:45.094Z,3.56
2023-01-09T09:29:12.528Z,3.45
2023-01-09T09:31:39.813Z,3.69
2023-01-09T09:34:07.378Z,4.17
2023-01-09T09:36:34.818Z,4.18
2023-01-09T09:39:02.952Z,2.52
2023-01-09T09:41:52.882Z,3.31
2023-01-09T09:44:52.642Z,3.28
2023-01-09T09:47:32.324Z,3.21
2023-01-09T09:50:08.781Z,3.65
2023-01-09T09:53:07.631Z,3.21
2023-01-09T09:55:35.704Z,3.19
2023-01-09T09:58:08.013Z,2.69
2023-01-09T10:00:35.586Z,3.28
2023-01-09T10:03:34.149Z,3.41
2023-01-09T10:06:04.841Z,3.10
2023-01-09T10:08:54.060Z,3.28
2023-01-09T10:11:27.262Z,3.53
2023-01-09T10:14:16.081Z,3.31
2023-01-09T10:17:11.611Z,3.20
2023-01-09T10:19:54.247Z,3.04
2023-01-09T10:22:43.462Z,3.30
2023-01-09T10:25:23.066Z,3.66
2023-01-09T10:28:23.031Z,3.00
2023-01-09T10:31:03.023Z,3.20
2023-01-09T10:33:41.916Z,3.26
2023-01-09T10:36:44.842Z,3.66
2023-01-09T10:39:28.266Z,3.36
2023-01-09T10:42:08.107Z,3.60
2023-01-09T10:44:40.085Z,3.79
2023-01-09T10:47:35.550Z,3.75
2023-01-09T10:50:14.919Z,3.61
2023-01-09T10:52:42.246Z,3.39
2023-01-09T10:55:19.736Z,3.42
2023-01-09T10:57:53.650Z,3.17
2023-01-09T11:00:23.698Z,2.75
2023-01-09T11:02:54.965Z,2.41
2023-01-09T11:05:24.741Z,1.66
2023-01-09T11:08:27.720Z,1.49
2023-01-09T11:10:56.589Z,1.52
2023-01-09T11:13:34.765Z,0.99
2023-01-09T11:16:11.649Z,1.00
2023-01-09T11:18:40.564Z,1.24
2023-01-09T11:21:23.209Z,1.16
2023-01-09T11:23:50.619Z,0.57
2023-01-09T11:26:26.827Z,0.80
2023-01-09T11:29:07.683Z,0.59
2023-01-09T11:31:34.985Z,1.00
2023-01-09T11:34:02.240Z,0.93
2023-01-09T11:36:32.174Z,1.09
2023-01-09T11:39:00.401Z,1.21
2023-01-09T11:41:32.735Z,0.85
2023-01-09T11:43:59.995Z,0.88
2023-01-09T11:46:35.500Z,1.11
2023-01-09T11:49:23.749Z,1.01
2023-01-09T11:52:16.566Z,0.94
2023-01-09T11:54:52.143Z,0.87
2023-01-09T11:57:21.083Z,0.94
2023-01-09T11:59:48.329Z,0.81
2023-01-09T12:02:40.595Z,0.84
2023-01-09T12:05:23.139Z,0.71
2023-01-09T12:07:50.302Z,0.95
2023-01-09T12:10:42.649Z,0.95
2023-01-09T12:13:16.111Z,0.95
2023-01-09T12:15:58.373Z,0.86
2023-01-09T12:18:45.631Z,0.97
2023-01-09T12:21:34.925Z,1.11
2023-01-09T12:24:38.111Z,0.95
2023-01-09T12:27:43.776Z,1.09
2023-01-09T12:30:45.409Z,1.20
2023-01-09T12:33:28.436Z,1.26
2023-01-09T12:36:14.128Z,1.38
2023-01-09T12:38:42.606Z,1.14
2023-01-09T12:41:42.968Z,1.16
2023-01-09T12:44:35.976Z,1.20
2023-01-09T12:47:34.989Z,1.34
2023-01-09T12:50:06.341Z,1.28
2023-01-09T12:52:45.248Z,1.32
2023-01-09T12:55:14.651Z,1.21
2023-01-09T12:57:59.225Z,1.28
2023-01-09T13:00:32.114Z,1.33
2023-01-09T13:03:12.060Z,1.29
2023-01-09T13:05:50.570Z,1.28
2023-01-09T13:08:27.037Z,1.14
2023-01-09T13:10:59.895Z,1.12
2023-01-09T13:13:32.380Z,0.99
2023-01-09T13:16:06.074Z,0.97
2023-01-09T13:18:42.748Z,0.95
2023-01-09T13:21:09.996Z,0.97
2023-01-09T13:24:08.105Z,0.83
2023-01-09T13:26:35.337Z,0.76
2023-01-09T13:29:26.855Z,0.76
2023-01-09T13:32:31.748Z,0.74
2023-01-09T13:35:01.586Z,0.65
2023-01-09T13:37:37.929Z,0.63
2023-01-09T13:40:22.338Z,0.45
2023-01-09T13:42:58.379Z,0.48
2023-01-09T13:45:27.622Z,0.29
2023-01-09T13:48:12.208Z,0.36
2023-01-09T13:50:39.549Z,0.42
2023-01-09T13:53:20.369Z,0.34
2023-01-09T13:55:58.035Z,0.34
2023-01-09T13:58:39.907Z,0.25
2023-01-09T14:01:24.593Z,0.23
2023-01-09T14:04:21.626Z,0.14
2023-01-09T14:07:14.749Z,0.09
2023-01-09T14:09:56.490Z,0.07
2023-01-09T14:12:23.712Z,-0.04
2023-01-09T14:14:52.294Z,0.02
2023-01-09T14:17:34.469Z,-0.00
2023-01-09T14:20:05.081Z,-0.04
2023-01-09T14:22:45.604Z,0.01
2023-01-09T14:25:27.652Z,-0.10
2023-01-09T14:27:54.838Z,-0.10
2023-01-09T14:30:28.731Z,-0.11
2023-01-09T14:33:05.279Z,-0.16
2023-01-09T14:35:55.697Z,-0.27
2023-01-09T14:38:27.958Z,-0.29
2023-01-09T14:41:46.246Z,-0.32
2023-01-09T14:44:41.449Z,-0.34
2023-01-09T14:47:23.104Z,-0.35
2023-01-09T14:50:15.748Z,-0.39
2023-01-09T14:53:09.947Z,-0.44
2023-01-09T14:55:43.355Z,-0.47
2023-01-09T14:58:23.389Z,-0.46
2023-01-09T15:01:19.043Z,-0.49
2023-01-09T15:03:50.516Z,-0.57
2023-01-09T15:06:26.075Z,-0.56
2023-01-09T15:09:05.213Z,-0.61
2023-01-09T15:11:32.657Z,-0.78
2023-01-09T15:14:00.419Z,-0.72
2023-01-09T15:16:28.283Z,-0.78
2023-01-09T15:18:57.666Z,-0.90
2023-01-09T15:21:26.244Z,-0.94
2023-01-09T15:23:53.574Z,-1.03
2023-01-09T15:26:29.882Z,-0.98
2023-01-09T15:29:02.803Z,-1.01
2023-01-09T15:31:30.050Z,-1.10
2023-01-09T15:33:57.417Z,-1.17
2023-01-09T15:36:26.041Z,-1.11
2023-01-09T15:38:53.443Z,-1.16
2023-01-09T15:41:47.249Z,-1.19
2023-01-09T15:44:27.896Z,-1.22
2023-01-09T15:46:58.414Z,-1.22
2023-01-09T15:49:25.680Z,-1.26
2023-01-09T15:51:52.850Z,-1.33
2023-01-09T15:54:25.905Z,-1.32
2023-01-09T15:56:53.560Z,-1.34
2023-01-09T15:59:28.953Z,-1.42
2023-01-09T16:02:23.204Z,-1.49
2023-01-09T16:04:50.731Z,-1.47
2023-01-09T16:07:19.457Z,-1.46
2023-01-09T16:09:48.048Z,-1.50
2023-01-09T16:12:23.675Z,-1.57
2023-01-09T16:15:15.301Z,-1.52
2023-01-09T16:18:21.556Z,-1.63
2023-01-09T16:20:49.601Z,-1.61
2023-01-09T16:23:25.300Z,-1.63
2023-01-09T16:26:22.172Z,-1.72
2023-01-09T16:28:50.216Z,-1.75
2023-01-09T16:31:20.620Z,-1.69
2023-01-09T16:33:53.699Z,-1.83
2023-01-09T16:36:23.909Z,-1.82
2023-01-09T16:38:51.646Z,-1.71
2023-01-09T16:41:40.330Z,-1.77
2023-01-09T16:44:12.156Z,-1.78
2023-01-09T16:46:44.028Z,-1.80
2023-01-09T16:49:19.729Z,-1.88
2023-01-09T16:51:47.555Z,-2.12
2023-01-09T16:54:15.008Z,-2.13
2023-01-09T16:56:44.561Z,-2.19
2023-01-09T16:59:16.405Z,-2.30
2023-01-09T17:01:48.362Z,-2.34
2023-01-09T17:04:17.428Z,-2.43
2023-01-09T17:06:44.800Z,-2.40
2023-01-09T17:09:14.890Z,-2.41
2023-01-09T17:11:42.363Z,-2.46
2023-01-09T17:14:13.178Z,-2.43
2023-01-09T17:16:43.482Z,-2.37
2023-01-09T17:19:16.150Z,-2.55
2023-01-09T17:21:46.483Z,-2.37
2023-01-09T17:24:35.234Z,-2.42
2023-01-09T17:27:21.415Z,-2.52
2023-01-09T17:29:49.510Z,-2.62
2023-01-09T17:32:17.706Z,-2.75
2023-01-09T17:34:45.050Z,-2.74
2023-01-09T17:37:16.771Z,-2.83
2023-01-09T17:39:44.703Z,-2.81
2023-01-09T17:42:12.083Z,-2.83
2023-01-09T17:44:39.447Z,-2.93
2023-01-09T17:47:07.630Z,-2.98
2023-01-09T17:49:38.746Z,-3.09
2023-01-09T17:52:07.207Z,-3.11
2023-01-09T17:54:34.326Z,-3.22
2023-01-09T17:57:02.523Z,-3.20
2023-01-09T17:59:30.564Z,-3.17
2023-01-09T18:01:58.082Z,-3.18
2023-01-09T18:04:26.408Z,-3.25
2023-01-09T18:06:54.833Z,-3.26
2023-01-09T18:09:22.098Z,-3.36
2023-01-09T18:11:49.893Z,-3.42
2023-01-09T18:14:17.983Z,-3.43
2023-01-09T18:16:45.527Z,-3.48
2023-01-09T18:19:12.905Z,-3.47
2023-01-09T18:21:40.213Z,-3.56
2023-01-09T18:24:08.810Z,-3.53
2023-01-09T18:26:36.230Z,-3.63
2023-01-09T18:29:05.335Z,-3.71
2023-01-09T18:31:34.242Z,-3.84
2023-01-09T18:34:05.611Z,-4.01
2023-01-09T18:36:33.955Z,-4.03
2023-01-09T18:39:02.596Z,-4.05
2023-01-09T18:41:30.421Z,-3.94
2023-01-09T18:43:59.253Z,-3.94
2023-01-09T18:46:31.013Z,-3.98
2023-01-09T18:49:04.769Z,-3.96
2023-01-09T18:51:32.670Z,-3.97
2023-01-09T18:53:59.989Z,-4.01
2023-01-09T18:56:27.250Z,-3.99
2023-01-09T18:58:57.308Z,-4.04
2023-01-09T19:01:29.793Z,-4.09
2023-01-09T19:03:58.414Z,-4.07
2023-01-09T19:06:26.733Z,-4.05
2023-01-09T19:08:55.193Z,-4.12
2023-01-09T19:11:24.215Z,-4.18
2023-01-09T19:13:51.605Z,-4.26
2023-01-09T19:16:19.128Z,-4.31
2023-01-09T19:18:46.580Z,-4.41
2023-01-09T19:21:21.082Z,-4.40
2023-01-09T19:23:51.497Z,-4.49
2023-01-09T19:26:21.575Z,-4.52
2023-01-09T19:28:50.316Z,-4.61
2023-01-09T19:31:18.053Z,-4.64
2023-01-09T19:33:45.432Z,-4.61
2023-01-09T19:36:12.818Z,-4.57
2023-01-09T19:38:40.395Z,-4.66
2023-01-09T19:41:14.567Z,-4.78
2023-01-09T19:43:41.985Z,-4.77
2023-01-09T19:46:19.041Z,-4.74
2023-01-09T19:48:46.825Z,-4.72
2023-01-09T19:51:15.793Z,-4.72
2023-01-09T19:53:46.019Z,-4.77
2023-01-09T19:56:15.598Z,-4.74
2023-01-09T19:58:44.297Z,-4.77
2023-01-09T20:01:13.645Z,-4.87
2023-01-09T20:03:41.782Z,-4.93
2023-01-09T20:06:14.151Z,-4.93
2023-01-09T20:08:42.182Z,-5.03
2023-01-09T20:11:09.479Z,-4.95
2023-01-09T20:13:37.147Z,-4.98
2023-01-09T20:16:04.758Z,-4.98
2023-01-09T20:18:32.756Z,-4.92
2023-01-09T20:21:00.290Z,-4.91
2023-01-09T20:23:27.928Z,-4.91
2023-01-09T20:25:56.107Z,-4.90
2023-01-09T20:28:24.017Z,-4.97
2023-01-09T20:30:51.892Z,-4.98
2023-01-09T20:33:21.266Z,-4.99
2023-01-09T20:35:48.533Z,-5.01
2023-01-09T20:38:16.128Z,-4.98
2023-01-09T20:40:44.281Z,-5.01
2023-01-09T20:43:12.723Z,-5.01
2023-01-09T20:45:40.483Z,-5.04
2023-01-09T20:48:08.401Z,-5.07
2023-01-09T20:50:35.698Z,-5.12
2023-01-09T20:53:05.980Z,-5.16
2023-01-09T20:55:35.062Z,-5.10
2023-01-09T20:58:02.225Z,-5.08
2023-01-09T21:00:32.310Z,-5.12
2023-01-09T21:02:59.907Z,-5.11
2023-01-09T21:05:27.358Z,-5.13
2023-01-09T21:07:54.613Z,-5.12
2023-01-09T21:10:21.867Z,-5.10
2023-01-09T21:12:49.618Z,-5.11
2023-01-09T21:15:18.120Z,-5.12
2023-01-09T21:17:45.519Z,-5.13
2023-01-09T21:20:14.118Z,-5.13
2023-01-09T21:22:43.701Z,-5.14
2023-01-09T21:25:11.606Z,-5.18
2023-01-09T21:27:40.972Z,-5.15
2023-01-09T21:30:09.203Z,-5.22
2023-01-09T21:32:36.753Z,-5.21
2023-01-09T21:35:06.058Z,-5.19
2023-01-09T21:37:34.758Z,-5.21
2023-01-09T21:40:02.218Z,-5.30
2023-01-09T21:42:48.199Z,-5.28
2023-01-09T21:45:34.708Z,-5.31
2023-01-09T21:48:05.814Z,-5.27
2023-01-09T21:50:33.784Z,-5.28
2023-01-09T21:53:01.547Z,-5.24
2023-01-09T21:55:29.044Z,-5.24
2023-01-09T21:57:56.506Z,-5.29
2023-01-09T22:00:24.756Z,-5.32
2023-01-09T22:02:52.087Z,-5.31
2023-01-09T22:05:19.258Z,-5.33
2023-01-09T22:07:46.518Z,-5.33
2023-01-09T22:10:13.696Z,-5.36
2023-01-09T22:13:00.837Z,-5.34
2023-01-09T22:15:28.364Z,-5.37
2023-01-09T22:17:55.627Z,-5.38
2023-01-09T22:20:22.802Z,-5.37
2023-01-09T22:22:50.067Z,-5.35
2023-01-09T22:25:17.414Z,-5.28
2023-01-09T22:27:44.881Z,-5.31
2023-01-09T22:30:12.529Z,-5.24
2023-01-09T22:32:39.765Z,-5.24
2023-01-09T22:35:07.688Z,-5.23
2023-01-09T22:37:34.885Z,-5.23
2023-01-09T22:40:02.183Z,-5.23
2023-01-09T22:42:29.621Z,-5.21
2023-01-09T22:44:56.823Z,-5.23
2023-01-09T22:47:24.107Z,-5.26
2023-01-09T22:49:53.524Z,-5.29
2023-01-09T22:52:21.567Z,-5.31
2023-01-09T22:54:48.727Z,-5.38
2023-01-09T22:57:15.919Z,-5.46
2023-01-09T22:59:43.060Z,-5.47
2023-01-09T23:02:10.406Z,-5.49
2023-01-09T23:04:37.704Z,-5.52
2023-01-09T23:07:04.917Z,-5.48
2023-01-09T23:09:32.099Z,-5.56
2023-01-09T23:12:02.174Z,-5.59
2023-01-09T23:14:30.552Z,-5.63
2023-01-09T23:16:58.172Z,-5.56
2023-01-09T23:19:25.359Z,-5.51
2023-01-09T23:21:52.640Z,-5.52
2023-01-09T23:24:19.991Z,-5.53
2023-01-09T23:26:47.925Z,-5.52
2023-01-09T23:29:15.526Z,-5.55
2023-01-09T23:31:43.015Z,-5.54
2023-01-09T23:34:13.129Z,-5.55
2023-01-09T23:36:40.558Z,-5.56
2023-01-09T23:39:10.723Z,-5.55
2023-01-09T23:41:57.050Z,-5.49
2023-01-09T23:44:24.260Z,-5.46
2023-01-09T23:46:51.500Z,-5.49
2023-01-09T23:49:19.260Z,-5.51
2023-01-09T23:51:46.766Z,-5.51
2023-01-09T23:54:14.361Z,-5.53
2023-01-09T23:56:41.550Z,-5.58
2023-01-09T23:59:11.608Z,-5.55
